sensor_id;sensor_type;location;lat;lon;timestamp;temperature;humidity
78876;DHT22;68253;52.506;5.486;2023-10-19T00:01:56;9.00;79.60
78876;DHT22;68253;52.506;5.486;2023-10-19T00:04:27;9.00;79.60
78876;DHT22;68253;52.506;5.486;2023-10-19T00:06:57;9.00;79.60
78876;DHT22;68253;52.506;5.486;2023-10-19T00:09:23;9.00;79.70
78876;DHT22;68253;52.506;5.486;2023-10-19T00:11:49;9.00;79.70
78876;DHT22;68253;52.506;5.486;2023-10-19T00:14:20;9.00;79.70
78876;DHT22;68253;52.506;5.486;2023-10-19T00:16:47;9.00;79.80
78876;DHT22;68253;52.506;5.486;2023-10-19T00:19:20;9.10;79.80
78876;DHT22;68253;52.506;5.486;2023-10-19T00:21:46;9.10;79.90
78876;DHT22;68253;52.506;5.486;2023-10-19T00:24:21;9.20;79.90
78876;DHT22;68253;52.506;5.486;2023-10-19T00:26:50;9.20;79.90
78876;DHT22;68253;52.506;5.486;2023-10-19T00:29:19;9.20;79.80
78876;DHT22;68253;52.506;5.486;2023-10-19T00:32:06;9.20;79.80
78876;DHT22;68253;52.506;5.486;2023-10-19T00:34:38;9.20;79.90
78876;DHT22;68253;52.506;5.486;2023-10-19T00:37:04;9.20;79.90
78876;DHT22;68253;52.506;5.486;2023-10-19T00:39:37;9.20;79.80
78876;DHT22;68253;52.506;5.486;2023-10-19T00:42:09;9.20;79.90
78876;DHT22;68253;52.506;5.486;2023-10-19T00:44:35;9.20;79.90
78876;DHT22;68253;52.506;5.486;2023-10-19T00:47:08;9.20;80.00
78876;DHT22;68253;52.506;5.486;2023-10-19T00:49:46;9.20;80.00
78876;DHT22;68253;52.506;5.486;2023-10-19T00:52:13;9.20;80.00
78876;DHT22;68253;52.506;5.486;2023-10-19T00:54:47;9.20;80.10
78876;DHT22;68253;52.506;5.486;2023-10-19T00:57:18;9.20;80.10
78876;DHT22;68253;52.506;5.486;2023-10-19T00:59:58;9.30;80.10
78876;DHT22;68253;52.506;5.486;2023-10-19T01:02:48;9.30;80.10
78876;DHT22;68253;52.506;5.486;2023-10-19T01:05:17;9.30;80.10
78876;DHT22;68253;52.506;5.486;2023-10-19T01:07:47;9.30;80.10
78876;DHT22;68253;52.506;5.486;2023-10-19T01:10:21;9.30;80.10
78876;DHT22;68253;52.506;5.486;2023-10-19T01:12:49;9.40;80.10
78876;DHT22;68253;52.506;5.486;2023-10-19T01:15:18;9.40;80.10
78876;DHT22;68253;52.506;5.486;2023-10-19T01:17:56;9.40;80.10
78876;DHT22;68253;52.506;5.486;2023-10-19T01:20:28;9.40;80.20
78876;DHT22;68253;52.506;5.486;2023-10-19T01:23:05;9.40;80.20
78876;DHT22;68253;52.506;5.486;2023-10-19T01:25:46;9.40;80.30
78876;DHT22;68253;52.506;5.486;2023-10-19T01:28:22;9.40;80.30
78876;DHT22;68253;52.506;5.486;2023-10-19T01:31:16;9.40;80.30
78876;DHT22;68253;52.506;5.486;2023-10-19T01:33:43;9.40;80.40
78876;DHT22;68253;52.506;5.486;2023-10-19T01:36:11;9.40;80.40
78876;DHT22;68253;52.506;5.486;2023-10-19T01:38:54;9.40;80.50
78876;DHT22;68253;52.506;5.486;2023-10-19T01:41:22;9.50;80.60
78876;DHT22;68253;52.506;5.486;2023-10-19T01:43:51;9.50;80.50
78876;DHT22;68253;52.506;5.486;2023-10-19T01:46:23;9.50;80.60
78876;DHT22;68253;52.506;5.486;2023-10-19T01:48:52;9.60;80.70
78876;DHT22;68253;52.506;5.486;2023-10-19T01:51:23;9.60;80.70
78876;DHT22;68253;52.506;5.486;2023-10-19T01:53:49;9.70;80.60
78876;DHT22;68253;52.506;5.486;2023-10-19T01:56:17;9.70;80.60
78876;DHT22;68253;52.506;5.486;2023-10-19T01:58:45;9.70;80.60
78876;DHT22;68253;52.506;5.486;2023-10-19T02:01:13;9.80;80.60
78876;DHT22;68253;52.506;5.486;2023-10-19T02:03:43;9.80;80.60
78876;DHT22;68253;52.506;5.486;2023-10-19T02:06:14;9.80;80.60
78876;DHT22;68253;52.506;5.486;2023-10-19T02:08:48;9.90;80.70
78876;DHT22;68253;52.506;5.486;2023-10-19T02:11:21;9.90;80.70
78876;DHT22;68253;52.506;5.486;2023-10-19T02:13:48;9.90;80.70
78876;DHT22;68253;52.506;5.486;2023-10-19T02:16:19;10.00;80.70
78876;DHT22;68253;52.506;5.486;2023-10-19T02:18:49;10.00;80.70
78876;DHT22;68253;52.506;5.486;2023-10-19T02:21:16;10.00;80.70
78876;DHT22;68253;52.506;5.486;2023-10-19T02:23:48;10.00;80.70
78876;DHT22;68253;52.506;5.486;2023-10-19T02:26:17;10.00;80.70
78876;DHT22;68253;52.506;5.486;2023-10-19T02:28:47;10.10;80.80
78876;DHT22;68253;52.506;5.486;2023-10-19T02:31:13;10.10;80.80
78876;DHT22;68253;52.506;5.486;2023-10-19T02:33:48;10.10;80.80
78876;DHT22;68253;52.506;5.486;2023-10-19T02:36:18;10.20;80.80
78876;DHT22;68253;52.506;5.486;2023-10-19T02:38:48;10.20;80.80
78876;DHT22;68253;52.506;5.486;2023-10-19T02:41:15;10.20;80.80
78876;DHT22;68253;52.506;5.486;2023-10-19T02:43:42;10.20;80.80
78876;DHT22;68253;52.506;5.486;2023-10-19T02:46:13;10.30;80.80
78876;DHT22;68253;52.506;5.486;2023-10-19T02:48:39;10.30;80.80
78876;DHT22;68253;52.506;5.486;2023-10-19T02:51:11;10.30;80.80
78876;DHT22;68253;52.506;5.486;2023-10-19T02:53:41;10.30;80.80
78876;DHT22;68253;52.506;5.486;2023-10-19T02:56:12;10.40;80.70
78876;DHT22;68253;52.506;5.486;2023-10-19T02:58:44;10.40;80.70
78876;DHT22;68253;52.506;5.486;2023-10-19T03:01:16;10.50;80.70
78876;DHT22;68253;52.506;5.486;2023-10-19T03:03:45;10.50;80.70
78876;DHT22;68253;52.506;5.486;2023-10-19T03:06:12;10.60;80.70
78876;DHT22;68253;52.506;5.486;2023-10-19T03:08:39;10.60;80.70
78876;DHT22;68253;52.506;5.486;2023-10-19T03:11:05;10.60;80.70
78876;DHT22;68253;52.506;5.486;2023-10-19T03:13:33;10.60;80.70
78876;DHT22;68253;52.506;5.486;2023-10-19T03:15:59;10.70;80.70
78876;DHT22;68253;52.506;5.486;2023-10-19T03:18:34;10.70;80.70
78876;DHT22;68253;52.506;5.486;2023-10-19T03:21:02;10.80;80.70
78876;DHT22;68253;52.506;5.486;2023-10-19T03:23:28;10.80;80.70
78876;DHT22;68253;52.506;5.486;2023-10-19T03:25:55;10.80;80.70
78876;DHT22;68253;52.506;5.486;2023-10-19T03:28:27;10.80;80.70
78876;DHT22;68253;52.506;5.486;2023-10-19T03:30:55;10.90;80.70
78876;DHT22;68253;52.506;5.486;2023-10-19T03:33:21;10.90;80.70
78876;DHT22;68253;52.506;5.486;2023-10-19T03:35:52;10.90;80.70
78876;DHT22;68253;52.506;5.486;2023-10-19T03:38:20;11.00;80.60
78876;DHT22;68253;52.506;5.486;2023-10-19T03:40:49;11.00;80.70
78876;DHT22;68253;52.506;5.486;2023-10-19T03:43:18;11.00;80.70
78876;DHT22;68253;52.506;5.486;2023-10-19T03:45:47;11.10;80.70
78876;DHT22;68253;52.506;5.486;2023-10-19T03:48:19;11.10;80.70
78876;DHT22;68253;52.506;5.486;2023-10-19T03:51:02;11.10;80.70
78876;DHT22;68253;52.506;5.486;2023-10-19T03:53:29;11.10;80.70
78876;DHT22;68253;52.506;5.486;2023-10-19T03:55:56;11.10;80.70
78876;DHT22;68253;52.506;5.486;2023-10-19T03:58:22;11.20;80.70
78876;DHT22;68253;52.506;5.486;2023-10-19T04:00:49;11.30;80.80
78876;DHT22;68253;52.506;5.486;2023-10-19T04:03:16;11.30;80.70
78876;DHT22;68253;52.506;5.486;2023-10-19T04:05:46;11.40;80.70
78876;DHT22;68253;52.506;5.486;2023-10-19T04:08:15;11.40;80.70
78876;DHT22;68253;52.506;5.486;2023-10-19T04:10:46;11.50;80.70
78876;DHT22;68253;52.506;5.486;2023-10-19T04:13:32;11.50;80.70
78876;DHT22;68253;52.506;5.486;2023-10-19T04:15:58;11.50;80.80
78876;DHT22;68253;52.506;5.486;2023-10-19T04:18:25;11.50;80.90
78876;DHT22;68253;52.506;5.486;2023-10-19T04:20:51;11.60;80.90
78876;DHT22;68253;52.506;5.486;2023-10-19T04:23:21;11.70;81.10
78876;DHT22;68253;52.506;5.486;2023-10-19T04:25:47;11.70;81.00
78876;DHT22;68253;52.506;5.486;2023-10-19T04:28:14;11.70;81.00
78876;DHT22;68253;52.506;5.486;2023-10-19T04:30:40;11.90;81.30
78876;DHT22;68253;52.506;5.486;2023-10-19T04:33:06;11.90;81.30
78876;DHT22;68253;52.506;5.486;2023-10-19T04:35:36;11.90;81.30
78876;DHT22;68253;52.506;5.486;2023-10-19T04:38:04;11.90;81.40
78876;DHT22;68253;52.506;5.486;2023-10-19T04:40:33;12.00;81.30
78876;DHT22;68253;52.506;5.486;2023-10-19T04:43:02;12.00;81.40
78876;DHT22;68253;52.506;5.486;2023-10-19T04:45:31;12.00;81.30
78876;DHT22;68253;52.506;5.486;2023-10-19T04:47:57;12.10;81.20
78876;DHT22;68253;52.506;5.486;2023-10-19T04:50:23;12.10;81.20
78876;DHT22;68253;52.506;5.486;2023-10-19T04:52:49;12.10;81.20
78876;DHT22;68253;52.506;5.486;2023-10-19T04:55:16;12.10;81.20
78876;DHT22;68253;52.506;5.486;2023-10-19T04:57:42;12.10;81.20
78876;DHT22;68253;52.506;5.486;2023-10-19T05:00:08;12.10;81.10
78876;DHT22;68253;52.506;5.486;2023-10-19T05:02:39;12.10;81.10
78876;DHT22;68253;52.506;5.486;2023-10-19T05:05:05;12.10;81.10
78876;DHT22;68253;52.506;5.486;2023-10-19T05:07:31;12.10;81.10
78876;DHT22;68253;52.506;5.486;2023-10-19T05:09:59;12.10;81.10
78876;DHT22;68253;52.506;5.486;2023-10-19T05:12:25;12.10;81.10
78876;DHT22;68253;52.506;5.486;2023-10-19T05:14:51;12.10;81.00
78876;DHT22;68253;52.506;5.486;2023-10-19T05:17:17;12.10;81.00
78876;DHT22;68253;52.506;5.486;2023-10-19T05:19:47;12.10;81.00
78876;DHT22;68253;52.506;5.486;2023-10-19T05:22:16;12.10;81.00
78876;DHT22;68253;52.506;5.486;2023-10-19T05:24:42;12.00;81.00
78876;DHT22;68253;52.506;5.486;2023-10-19T05:27:08;12.00;81.10
78876;DHT22;68253;52.506;5.486;2023-10-19T05:29:35;12.10;81.10
78876;DHT22;68253;52.506;5.486;2023-10-19T05:32:02;12.10;81.10
78876;DHT22;68253;52.506;5.486;2023-10-19T05:34:29;12.10;81.10
78876;DHT22;68253;52.506;5.486;2023-10-19T05:36:58;12.10;81.10
78876;DHT22;68253;52.506;5.486;2023-10-19T05:39:31;12.10;81.10
78876;DHT22;68253;52.506;5.486;2023-10-19T05:41:57;12.20;81.10
78876;DHT22;68253;52.506;5.486;2023-10-19T05:44:28;12.20;81.10
78876;DHT22;68253;52.506;5.486;2023-10-19T05:46:54;12.20;81.20
78876;DHT22;68253;52.506;5.486;2023-10-19T05:49:20;12.30;81.10
78876;DHT22;68253;52.506;5.486;2023-10-19T05:51:47;12.30;81.10
78876;DHT22;68253;52.506;5.486;2023-10-19T05:54:13;12.30;81.10
78876;DHT22;68253;52.506;5.486;2023-10-19T05:56:39;12.40;81.10
78876;DHT22;68253;52.506;5.486;2023-10-19T05:59:05;12.40;81.00
78876;DHT22;68253;52.506;5.486;2023-10-19T06:01:32;12.40;81.00
78876;DHT22;68253;52.506;5.486;2023-10-19T06:03:58;12.50;81.00
78876;DHT22;68253;52.506;5.486;2023-10-19T06:06:24;12.50;81.00
78876;DHT22;68253;52.506;5.486;2023-10-19T06:08:51;12.50;81.00
78876;DHT22;68253;52.506;5.486;2023-10-19T06:11:20;12.50;81.00
78876;DHT22;68253;52.506;5.486;2023-10-19T06:13:46;12.50;81.00
78876;DHT22;68253;52.506;5.486;2023-10-19T06:16:13;12.50;80.90
78876;DHT22;68253;52.506;5.486;2023-10-19T06:18:40;12.50;80.90
78876;DHT22;68253;52.506;5.486;2023-10-19T06:21:06;12.60;81.00
78876;DHT22;68253;52.506;5.486;2023-10-19T06:23:32;12.70;80.90
78876;DHT22;68253;52.506;5.486;2023-10-19T06:25:58;12.70;80.90
78876;DHT22;68253;52.506;5.486;2023-10-19T06:28:29;12.70;80.90
78876;DHT22;68253;52.506;5.486;2023-10-19T06:31:00;12.70;80.90
78876;DHT22;68253;52.506;5.486;2023-10-19T06:33:26;12.70;80.80
78876;DHT22;68253;52.506;5.486;2023-10-19T06:35:52;12.80;80.90
78876;DHT22;68253;52.506;5.486;2023-10-19T06:38:18;12.80;80.90
78876;DHT22;68253;52.506;5.486;2023-10-19T06:40:45;12.80;80.90
78876;DHT22;68253;52.506;5.486;2023-10-19T06:43:11;12.90;80.90
78876;DHT22;68253;52.506;5.486;2023-10-19T06:45:37;12.90;80.80
78876;DHT22;68253;52.506;5.486;2023-10-19T06:48:05;12.90;80.80
78876;DHT22;68253;52.506;5.486;2023-10-19T06:50:33;13.00;80.80
78876;DHT22;68253;52.506;5.486;2023-10-19T06:52:59;13.00;80.70
78876;DHT22;68253;52.506;5.486;2023-10-19T06:55:25;13.00;80.70
78876;DHT22;68253;52.506;5.486;2023-10-19T06:57:54;13.00;80.80
78876;DHT22;68253;52.506;5.486;2023-10-19T07:00:25;13.00;80.70
78876;DHT22;68253;52.506;5.486;2023-10-19T07:02:55;13.10;80.70
78876;DHT22;68253;52.506;5.486;2023-10-19T07:05:22;13.10;80.70
78876;DHT22;68253;52.506;5.486;2023-10-19T07:07:56;13.10;80.70
78876;DHT22;68253;52.506;5.486;2023-10-19T07:10:23;13.10;80.70
78876;DHT22;68253;52.506;5.486;2023-10-19T07:12:54;13.10;80.60
78876;DHT22;68253;52.506;5.486;2023-10-19T07:15:22;13.10;80.60
78876;DHT22;68253;52.506;5.486;2023-10-19T07:17:50;13.10;80.60
78876;DHT22;68253;52.506;5.486;2023-10-19T07:20:18;13.10;80.60
78876;DHT22;68253;52.506;5.486;2023-10-19T07:23:03;13.20;80.60
78876;DHT22;68253;52.506;5.486;2023-10-19T07:25:36;13.20;80.50
78876;DHT22;68253;52.506;5.486;2023-10-19T07:28:14;13.30;80.60
78876;DHT22;68253;52.506;5.486;2023-10-19T07:30:44;13.30;80.60
78876;DHT22;68253;52.506;5.486;2023-10-19T07:33:11;13.30;80.50
78876;DHT22;68253;52.506;5.486;2023-10-19T07:35:44;13.30;80.50
78876;DHT22;68253;52.506;5.486;2023-10-19T07:38:15;13.30;80.60
78876;DHT22;68253;52.506;5.486;2023-10-19T07:40:43;13.40;80.60
78876;DHT22;68253;52.506;5.486;2023-10-19T07:43:09;13.50;80.50
78876;DHT22;68253;52.506;5.486;2023-10-19T07:45:36;13.50;80.50
78876;DHT22;68253;52.506;5.486;2023-10-19T07:48:03;13.50;80.40
78876;DHT22;68253;52.506;5.486;2023-10-19T07:50:36;13.50;80.40
78876;DHT22;68253;52.506;5.486;2023-10-19T07:53:02;13.50;80.40
78876;DHT22;68253;52.506;5.486;2023-10-19T07:55:29;13.50;80.40
78876;DHT22;68253;52.506;5.486;2023-10-19T07:57:58;13.60;80.30
78876;DHT22;68253;52.506;5.486;2023-10-19T08:00:29;13.60;80.30
78876;DHT22;68253;52.506;5.486;2023-10-19T08:02:55;13.60;80.30
78876;DHT22;68253;52.506;5.486;2023-10-19T08:05:22;13.60;80.20
78876;DHT22;68253;52.506;5.486;2023-10-19T08:07:48;13.70;80.20
78876;DHT22;68253;52.506;5.486;2023-10-19T08:10:19;13.70;80.20
78876;DHT22;68253;52.506;5.486;2023-10-19T08:12:47;13.70;80.10
78876;DHT22;68253;52.506;5.486;2023-10-19T08:15:15;13.70;80.10
78876;DHT22;68253;52.506;5.486;2023-10-19T08:17:43;13.80;80.10
78876;DHT22;68253;52.506;5.486;2023-10-19T08:20:11;13.80;80.10
78876;DHT22;68253;52.506;5.486;2023-10-19T08:22:53;13.90;80.10
78876;DHT22;68253;52.506;5.486;2023-10-19T08:25:23;13.90;80.00
78876;DHT22;68253;52.506;5.486;2023-10-19T08:27:49;13.90;80.00
78876;DHT22;68253;52.506;5.486;2023-10-19T08:30:21;13.90;80.00
78876;DHT22;68253;52.506;5.486;2023-10-19T08:32:48;13.90;80.00
78876;DHT22;68253;52.506;5.486;2023-10-19T08:35:15;13.90;80.00
78876;DHT22;68253;52.506;5.486;2023-10-19T08:37:44;14.00;80.00
78876;DHT22;68253;52.506;5.486;2023-10-19T08:40:12;14.00;80.00
78876;DHT22;68253;52.506;5.486;2023-10-19T08:42:45;14.00;80.00
78876;DHT22;68253;52.506;5.486;2023-10-19T08:45:12;14.00;80.00
78876;DHT22;68253;52.506;5.486;2023-10-19T08:47:57;14.00;79.90
78876;DHT22;68253;52.506;5.486;2023-10-19T08:50:29;14.10;80.00
78876;DHT22;68253;52.506;5.486;2023-10-19T08:52:57;14.10;79.90
78876;DHT22;68253;52.506;5.486;2023-10-19T08:55:24;14.10;79.90
78876;DHT22;68253;52.506;5.486;2023-10-19T08:57:52;14.20;79.90
78876;DHT22;68253;52.506;5.486;2023-10-19T09:00:19;14.20;79.80
78876;DHT22;68253;52.506;5.486;2023-10-19T09:02:48;14.20;79.80
78876;DHT22;68253;52.506;5.486;2023-10-19T09:05:15;14.30;79.80
78876;DHT22;68253;52.506;5.486;2023-10-19T09:07:55;14.30;79.70
78876;DHT22;68253;52.506;5.486;2023-10-19T09:10:22;14.30;79.60
78876;DHT22;68253;52.506;5.486;2023-10-19T09:13:18;14.40;79.50
78876;DHT22;68253;52.506;5.486;2023-10-19T09:15:48;14.40;79.60
78876;DHT22;68253;52.506;5.486;2023-10-19T09:18:23;14.40;79.40
78876;DHT22;68253;52.506;5.486;2023-10-19T09:20:51;14.40;79.40
78876;DHT22;68253;52.506;5.486;2023-10-19T09:23:34;14.50;79.40
78876;DHT22;68253;52.506;5.486;2023-10-19T09:26:02;14.50;79.30
78876;DHT22;68253;52.506;5.486;2023-10-19T09:28:32;14.60;79.40
78876;DHT22;68253;52.506;5.486;2023-10-19T09:31:00;14.70;79.30
78876;DHT22;68253;52.506;5.486;2023-10-19T09:33:27;14.70;79.30
78876;DHT22;68253;52.506;5.486;2023-10-19T09:35:54;14.80;79.30
78876;DHT22;68253;52.506;5.486;2023-10-19T09:38:22;14.80;79.20
78876;DHT22;68253;52.506;5.486;2023-10-19T09:40:54;14.90;79.10
78876;DHT22;68253;52.506;5.486;2023-10-19T09:43:38;15.00;79.00
78876;DHT22;68253;52.506;5.486;2023-10-19T09:46:07;15.00;78.90
78876;DHT22;68253;52.506;5.486;2023-10-19T09:48:42;15.20;78.80
78876;DHT22;68253;52.506;5.486;2023-10-19T09:51:11;15.20;78.70
78876;DHT22;68253;52.506;5.486;2023-10-19T09:53:39;15.30;78.70
78876;DHT22;68253;52.506;5.486;2023-10-19T09:56:17;15.40;78.60
78876;DHT22;68253;52.506;5.486;2023-10-19T09:58:49;15.50;78.40
78876;DHT22;68253;52.506;5.486;2023-10-19T10:01:16;15.60;78.10
78876;DHT22;68253;52.506;5.486;2023-10-19T10:03:51;15.60;78.00
78876;DHT22;68253;52.506;5.486;2023-10-19T10:06:28;15.70;77.80
78876;DHT22;68253;52.506;5.486;2023-10-19T10:08:55;15.70;77.80
78876;DHT22;68253;52.506;5.486;2023-10-19T10:11:26;15.80;77.90
78876;DHT22;68253;52.506;5.486;2023-10-19T10:13:55;15.90;77.70
78876;DHT22;68253;52.506;5.486;2023-10-19T10:16:26;16.00;77.40
78876;DHT22;68253;52.506;5.486;2023-10-19T10:19:00;16.10;77.20
78876;DHT22;68253;52.506;5.486;2023-10-19T10:21:27;16.20;76.80
78876;DHT22;68253;52.506;5.486;2023-10-19T10:23:59;16.30;76.30
78876;DHT22;68253;52.506;5.486;2023-10-19T10:26:31;16.20;75.90
78876;DHT22;68253;52.506;5.486;2023-10-19T10:29:14;16.20;76.10
78876;DHT22;68253;52.506;5.486;2023-10-19T10:31:47;16.40;76.10
78876;DHT22;68253;52.506;5.486;2023-10-19T10:37:09;16.60;76.20
78876;DHT22;68253;52.506;5.486;2023-10-19T10:39:38;16.80;75.90
78876;DHT22;68253;52.506;5.486;2023-10-19T10:42:05;17.00;74.60
78876;DHT22;68253;52.506;5.486;2023-10-19T10:44:47;17.10;74.30
78876;DHT22;68253;52.506;5.486;2023-10-19T10:47:18;17.10;74.60
78876;DHT22;68253;52.506;5.486;2023-10-19T10:54:52;17.50;73.40
78876;DHT22;68253;52.506;5.486;2023-10-19T10:57:19;17.50;73.00
78876;DHT22;68253;52.506;5.486;2023-10-19T10:59:46;17.40;72.70
78876;DHT22;68253;52.506;5.486;2023-10-19T11:02:19;17.20;73.30
78876;DHT22;68253;52.506;5.486;2023-10-19T11:04:47;17.00;73.70
78876;DHT22;68253;52.506;5.486;2023-10-19T11:07:20;16.90;73.90
78876;DHT22;68253;52.506;5.486;2023-10-19T11:09:47;16.90;74.20
78876;DHT22;68253;52.506;5.486;2023-10-19T11:12:14;16.90;74.30
78876;DHT22;68253;52.506;5.486;2023-10-19T11:15:10;16.80;74.30
78876;DHT22;68253;52.506;5.486;2023-10-19T11:17:43;16.70;74.70
78876;DHT22;68253;52.506;5.486;2023-10-19T11:20:21;16.60;74.80
78876;DHT22;68253;52.506;5.486;2023-10-19T11:22:49;16.50;75.00
78876;DHT22;68253;52.506;5.486;2023-10-19T11:25:26;16.40;75.30
78876;DHT22;68253;52.506;5.486;2023-10-19T11:28:01;16.40;75.40
78876;DHT22;68253;52.506;5.486;2023-10-19T11:30:29;16.40;75.60
78876;DHT22;68253;52.506;5.486;2023-10-19T11:32:55;16.30;75.80
78876;DHT22;68253;52.506;5.486;2023-10-19T11:35:30;16.30;76.00
78876;DHT22;68253;52.506;5.486;2023-10-19T11:37:58;16.30;76.20
78876;DHT22;68253;52.506;5.486;2023-10-19T11:40:25;16.30;76.30
78876;DHT22;68253;52.506;5.486;2023-10-19T11:42:55;16.30;76.50
78876;DHT22;68253;52.506;5.486;2023-10-19T11:45:26;16.30;76.50
78876;DHT22;68253;52.506;5.486;2023-10-19T11:47:52;16.40;76.60
78876;DHT22;68253;52.506;5.486;2023-10-19T11:50:18;16.40;76.80
78876;DHT22;68253;52.506;5.486;2023-10-19T11:52:46;16.40;76.90
78876;DHT22;68253;52.506;5.486;2023-10-19T11:55:13;16.40;77.10
78876;DHT22;68253;52.506;5.486;2023-10-19T11:57:40;16.40;77.10
78876;DHT22;68253;52.506;5.486;2023-10-19T12:00:07;16.40;77.20
78876;DHT22;68253;52.506;5.486;2023-10-19T12:02:40;16.40;77.30
78876;DHT22;68253;52.506;5.486;2023-10-19T12:05:09;16.60;77.40
78876;DHT22;68253;52.506;5.486;2023-10-19T12:07:38;16.70;77.30
78876;DHT22;68253;52.506;5.486;2023-10-19T12:10:09;16.90;77.00
78876;DHT22;68253;52.506;5.486;2023-10-19T12:12:36;17.00;76.60
78876;DHT22;68253;52.506;5.486;2023-10-19T12:15:06;17.20;76.30
78876;DHT22;68253;52.506;5.486;2023-10-19T12:17:33;17.20;76.10
78876;DHT22;68253;52.506;5.486;2023-10-19T12:19:59;17.20;75.70
78876;DHT22;68253;52.506;5.486;2023-10-19T12:22:25;17.20;75.40
78876;DHT22;68253;52.506;5.486;2023-10-19T12:24:57;17.20;75.30
78876;DHT22;68253;52.506;5.486;2023-10-19T12:27:24;17.10;75.40
78876;DHT22;68253;52.506;5.486;2023-10-19T12:29:54;17.00;75.50
78876;DHT22;68253;52.506;5.486;2023-10-19T12:32:21;17.00;75.60
78876;DHT22;68253;52.506;5.486;2023-10-19T12:34:48;16.90;75.80
78876;DHT22;68253;52.506;5.486;2023-10-19T12:37:23;17.00;75.90
78876;DHT22;68253;52.506;5.486;2023-10-19T12:39:50;17.00;76.10
78876;DHT22;68253;52.506;5.486;2023-10-19T12:42:17;17.50;76.00
78876;DHT22;68253;52.506;5.486;2023-10-19T12:44:44;18.00;74.60
78876;DHT22;68253;52.506;5.486;2023-10-19T12:47:11;18.30;74.10
78876;DHT22;68253;52.506;5.486;2023-10-19T12:49:40;18.60;73.70
78876;DHT22;68253;52.506;5.486;2023-10-19T12:52:09;19.10;72.90
78876;DHT22;68253;52.506;5.486;2023-10-19T12:54:37;19.30;71.80
78876;DHT22;68253;52.506;5.486;2023-10-19T12:57:04;19.20;71.60
78876;DHT22;68253;52.506;5.486;2023-10-19T12:59:34;19.00;72.10
78876;DHT22;68253;52.506;5.486;2023-10-19T13:02:03;18.90;71.90
78876;DHT22;68253;52.506;5.486;2023-10-19T13:04:30;18.70;72.00
78876;DHT22;68253;52.506;5.486;2023-10-19T13:06:59;18.40;72.40
78876;DHT22;68253;52.506;5.486;2023-10-19T13:09:26;18.20;73.00
78876;DHT22;68253;52.506;5.486;2023-10-19T13:11:59;18.10;73.40
78876;DHT22;68253;52.506;5.486;2023-10-19T13:14:26;18.00;73.80
78876;DHT22;68253;52.506;5.486;2023-10-19T13:16:53;17.80;74.00
78876;DHT22;68253;52.506;5.486;2023-10-19T13:19:23;17.70;74.40
78876;DHT22;68253;52.506;5.486;2023-10-19T13:21:52;17.60;74.70
78876;DHT22;68253;52.506;5.486;2023-10-19T13:24:20;17.60;74.80
78876;DHT22;68253;52.506;5.486;2023-10-19T13:26:49;17.50;74.90
78876;DHT22;68253;52.506;5.486;2023-10-19T13:29:15;17.50;75.00
78876;DHT22;68253;52.506;5.486;2023-10-19T13:31:41;17.50;75.10
78876;DHT22;68253;52.506;5.486;2023-10-19T13:34:16;17.40;75.20
78876;DHT22;68253;52.506;5.486;2023-10-19T13:36:42;17.40;75.40
78876;DHT22;68253;52.506;5.486;2023-10-19T13:39:10;17.30;75.50
78876;DHT22;68253;52.506;5.486;2023-10-19T13:41:42;17.20;75.70
78876;DHT22;68253;52.506;5.486;2023-10-19T13:44:08;17.20;75.80
78876;DHT22;68253;52.506;5.486;2023-10-19T13:46:34;17.20;75.90
78876;DHT22;68253;52.506;5.486;2023-10-19T13:49:01;17.20;76.10
78876;DHT22;68253;52.506;5.486;2023-10-19T13:51:29;17.10;76.10
78876;DHT22;68253;52.506;5.486;2023-10-19T13:53:55;17.10;76.20
78876;DHT22;68253;52.506;5.486;2023-10-19T13:56:22;17.10;76.20
78876;DHT22;68253;52.506;5.486;2023-10-19T13:58:48;17.10;76.40
78876;DHT22;68253;52.506;5.486;2023-10-19T14:01:15;17.00;76.30
78876;DHT22;68253;52.506;5.486;2023-10-19T14:03:41;17.00;76.20
78876;DHT22;68253;52.506;5.486;2023-10-19T14:06:14;17.00;76.40
78876;DHT22;68253;52.506;5.486;2023-10-19T14:08:40;16.90;76.60
78876;DHT22;68253;52.506;5.486;2023-10-19T14:11:06;16.90;76.80
78876;DHT22;68253;52.506;5.486;2023-10-19T14:13:34;16.90;76.80
78876;DHT22;68253;52.506;5.486;2023-10-19T14:16:05;16.90;77.10
78876;DHT22;68253;52.506;5.486;2023-10-19T14:18:32;16.90;77.20
78876;DHT22;68253;52.506;5.486;2023-10-19T14:20:58;16.90;77.30
78876;DHT22;68253;52.506;5.486;2023-10-19T14:23:24;16.80;77.40
78876;DHT22;68253;52.506;5.486;2023-10-19T14:25:50;16.80;77.40
78876;DHT22;68253;52.506;5.486;2023-10-19T14:28:16;16.80;77.50
78876;DHT22;68253;52.506;5.486;2023-10-19T14:30:42;16.80;77.50
78876;DHT22;68253;52.506;5.486;2023-10-19T14:33:08;16.80;77.60
78876;DHT22;68253;52.506;5.486;2023-10-19T14:35:38;16.80;77.80
78876;DHT22;68253;52.506;5.486;2023-10-19T14:38:07;16.70;77.90
78876;DHT22;68253;52.506;5.486;2023-10-19T14:40:35;16.70;78.10
78876;DHT22;68253;52.506;5.486;2023-10-19T14:43:01;16.70;78.10
78876;DHT22;68253;52.506;5.486;2023-10-19T14:45:28;16.70;78.10
78876;DHT22;68253;52.506;5.486;2023-10-19T14:47:57;16.60;78.10
78876;DHT22;68253;52.506;5.486;2023-10-19T14:50:24;16.60;78.20
78876;DHT22;68253;52.506;5.486;2023-10-19T14:52:51;16.60;78.20
78876;DHT22;68253;52.506;5.486;2023-10-19T14:55:19;16.60;78.30
78876;DHT22;68253;52.506;5.486;2023-10-19T14:57:46;16.60;78.40
78876;DHT22;68253;52.506;5.486;2023-10-19T15:00:17;16.60;78.50
78876;DHT22;68253;52.506;5.486;2023-10-19T15:03:07;16.50;78.60
78876;DHT22;68253;52.506;5.486;2023-10-19T15:05:34;16.50;78.70
78876;DHT22;68253;52.506;5.486;2023-10-19T15:08:04;16.50;78.80
78876;DHT22;68253;52.506;5.486;2023-10-19T15:10:31;16.50;78.80
78876;DHT22;68253;52.506;5.486;2023-10-19T15:12:58;16.50;78.80
78876;DHT22;68253;52.506;5.486;2023-10-19T15:15:25;16.40;78.90
78876;DHT22;68253;52.506;5.486;2023-10-19T15:17:52;16.40;78.90
78876;DHT22;68253;52.506;5.486;2023-10-19T15:20:25;16.40;79.00
78876;DHT22;68253;52.506;5.486;2023-10-19T15:22:52;16.40;79.10
78876;DHT22;68253;52.506;5.486;2023-10-19T15:25:20;16.40;79.10
78876;DHT22;68253;52.506;5.486;2023-10-19T15:27:47;16.40;79.10
78876;DHT22;68253;52.506;5.486;2023-10-19T15:30:17;16.40;79.10
78876;DHT22;68253;52.506;5.486;2023-10-19T15:32:50;16.40;79.10
78876;DHT22;68253;52.506;5.486;2023-10-19T15:35:17;16.40;79.10
78876;DHT22;68253;52.506;5.486;2023-10-19T15:37:48;16.40;79.20
78876;DHT22;68253;52.506;5.486;2023-10-19T15:40:16;16.30;79.20
78876;DHT22;68253;52.506;5.486;2023-10-19T15:42:43;16.30;79.20
78876;DHT22;68253;52.506;5.486;2023-10-19T15:45:10;16.30;79.20
78876;DHT22;68253;52.506;5.486;2023-10-19T15:47:38;16.20;79.20
78876;DHT22;68253;52.506;5.486;2023-10-19T15:50:04;16.20;79.20
78876;DHT22;68253;52.506;5.486;2023-10-19T15:52:30;16.10;79.20
78876;DHT22;68253;52.506;5.486;2023-10-19T15:55:01;16.10;79.20